sensor_id;sensor_type;location;lat;lon;timestamp;pressure;altitude;pressure_sealevel;temperature;humidity
53522;BME280;39398;48.382;9.802;2023-05-23T00:03:47;93627.28;;;15.61;100.00
53522;BME280;39398;48.382;9.802;2023-05-23T00:08:49;93632.22;;;15.46;100.00
53522;BME280;39398;48.382;9.802;2023-05-23T00:13:52;93639.50;;;15.50;100.00
53522;BME280;39398;48.382;9.802;2023-05-23T00:18:54;93636.84;;;15.08;100.00
53522;BME280;39398;48.382;9.802;2023-05-23T00:23:55;93642.81;;;15.22;100.00
53522;BME280;39398;48.382;9.802;2023-05-23T00:28:58;93640.41;;;15.32;100.00
53522;BME280;39398;48.382;9.802;2023-05-23T00:34:00;93654.56;;;15.15;100.00
53522;BME280;39398;48.382;9.802;2023-05-23T00:39:02;93653.53;;;15.16;100.00
53522;BME280;39398;48.382;9.802;2023-05-23T00:44:05;93649.00;;;14.86;100.00
53522;BME280;39398;48.382;9.802;2023-05-23T00:49:06;93648.53;;;15.07;100.00
53522;BME280;39398;48.382;9.802;2023-05-23T00:54:08;93656.13;;;15.04;100.00
53522;BME280;39398;48.382;9.802;2023-05-23T00:59:12;93650.81;;;15.04;100.00
53522;BME280;39398;48.382;9.802;2023-05-23T01:04:14;93659.78;;;14.91;100.00
53522;BME280;39398;48.382;9.802;2023-05-23T01:09:16;93669.03;;;14.70;100.00
53522;BME280;39398;48.382;9.802;2023-05-23T01:14:23;93667.00;;;14.47;100.00
53522;BME280;39398;48.382;9.802;2023-05-23T01:19:47;93670.78;;;14.76;100.00
53522;BME280;39398;48.382;9.802;2023-05-23T01:24:54;93671.91;;;14.87;100.00
53522;BME280;39398;48.382;9.802;2023-05-23T01:30:00;93669.38;;;14.74;100.00
53522;BME280;39398;48.382;9.802;2023-05-23T01:35:05;93667.25;;;14.64;100.00
53522;BME280;39398;48.382;9.802;2023-05-23T01:40:07;93672.94;;;14.68;100.00
53522;BME280;39398;48.382;9.802;2023-05-23T01:45:11;93674.84;;;14.60;100.00
53522;BME280;39398;48.382;9.802;2023-05-23T01:50:13;93682.19;;;14.65;100.00
53522;BME280;39398;48.382;9.802;2023-05-23T01:55:16;93688.59;;;14.76;100.00
53522;BME280;39398;48.382;9.802;2023-05-23T02:00:22;93689.91;;;14.85;100.00
53522;BME280;39398;48.382;9.802;2023-05-23T02:05:24;93690.66;;;14.74;100.00
53522;BME280;39398;48.382;9.802;2023-05-23T02:10:26;93691.69;;;14.73;100.00
53522;BME280;39398;48.382;9.802;2023-05-23T02:15:29;93697.56;;;14.38;100.00
53522;BME280;39398;48.382;9.802;2023-05-23T02:20:30;93688.03;;;14.30;100.00
53522;BME280;39398;48.382;9.802;2023-05-23T02:25:32;93702.16;;;14.06;100.00
53522;BME280;39398;48.382;9.802;2023-05-23T02:30:35;93701.94;;;14.51;100.00
53522;BME280;39398;48.382;9.802;2023-05-23T02:35:36;93708.81;;;14.58;100.00
53522;BME280;39398;48.382;9.802;2023-05-23T02:40:38;93696.78;;;14.56;100.00
53522;BME280;39398;48.382;9.802;2023-05-23T02:45:41;93701.53;;;14.47;100.00
53522;BME280;39398;48.382;9.802;2023-05-23T02:50:43;93704.28;;;14.40;100.00
53522;BME280;39398;48.382;9.802;2023-05-23T02:55:45;93711.94;;;14.30;100.00
53522;BME280;39398;48.382;9.802;2023-05-23T03:00:48;93709.25;;;14.55;100.00
53522;BME280;39398;48.382;9.802;2023-05-23T03:05:49;93710.56;;;14.46;100.00
53522;BME280;39398;48.382;9.802;2023-05-23T03:10:51;93705.22;;;14.28;100.00
53522;BME280;39398;48.382;9.802;2023-05-23T03:15:54;93721.53;;;14.06;100.00
53522;BME280;39398;48.382;9.802;2023-05-23T03:20:56;93708.13;;;14.19;100.00
53522;BME280;39398;48.382;9.802;2023-05-23T03:25:58;93698.13;;;14.22;100.00
53522;BME280;39398;48.382;9.802;2023-05-23T03:31:01;93711.25;;;14.35;100.00
53522;BME280;39398;48.382;9.802;2023-05-23T03:36:03;93701.84;;;14.39;100.00
53522;BME280;39398;48.382;9.802;2023-05-23T03:41:04;93705.50;;;14.38;100.00
53522;BME280;39398;48.382;9.802;2023-05-23T03:46:08;93713.00;;;14.23;100.00
53522;BME280;39398;48.382;9.802;2023-05-23T03:51:09;93707.66;;;14.48;100.00
53522;BME280;39398;48.382;9.802;2023-05-23T03:56:11;93710.38;;;14.41;100.00
53522;BME280;39398;48.382;9.802;2023-05-23T04:01:14;93713.13;;;14.34;100.00
53522;BME280;39398;48.382;9.802;2023-05-23T04:06:16;93722.25;;;14.38;100.00
53522;BME280;39398;48.382;9.802;2023-05-23T04:11:18;93722.06;;;14.40;100.00
53522;BME280;39398;48.382;9.802;2023-05-23T04:16:21;93728.97;;;14.41;100.00
53522;BME280;39398;48.382;9.802;2023-05-23T04:21:23;93749.38;;;14.22;100.00
53522;BME280;39398;48.382;9.802;2023-05-23T04:26:24;93753.25;;;14.45;100.00
53522;BME280;39398;48.382;9.802;2023-05-23T04:31:27;93750.22;;;14.41;100.00
53522;BME280;39398;48.382;9.802;2023-05-23T04:36:29;93747.47;;;14.54;100.00
53522;BME280;39398;48.382;9.802;2023-05-23T04:41:31;93752.50;;;14.62;100.00
53522;BME280;39398;48.382;9.802;2023-05-23T04:46:34;93757.94;;;14.68;100.00
53522;BME280;39398;48.382;9.802;2023-05-23T04:51:36;93763.94;;;14.63;100.00
53522;BME280;39398;48.382;9.802;2023-05-23T04:56:37;93759.53;;;14.75;100.00
53522;BME280;39398;48.382;9.802;2023-05-23T05:01:40;93770.16;;;14.75;100.00
53522;BME280;39398;48.382;9.802;2023-05-23T05:06:42;93773.47;;;14.89;100.00
53522;BME280;39398;48.382;9.802;2023-05-23T05:11:43;93769.78;;;15.08;100.00
53522;BME280;39398;48.382;9.802;2023-05-23T05:16:46;93770.72;;;15.14;100.00
53522;BME280;39398;48.382;9.802;2023-05-23T05:21:48;93758.53;;;15.25;100.00
53522;BME280;39398;48.382;9.802;2023-05-23T05:26:50;93768.28;;;15.61;100.00
53522;BME280;39398;48.382;9.802;2023-05-23T05:31:53;93761.94;;;15.62;100.00
53522;BME280;39398;48.382;9.802;2023-05-23T05:36:54;93779.00;;;15.24;100.00
53522;BME280;39398;48.382;9.802;2023-05-23T05:41:56;93780.91;;;15.66;100.00
53522;BME280;39398;48.382;9.802;2023-05-23T05:46:59;93785.00;;;15.20;100.00
53522;BME280;39398;48.382;9.802;2023-05-23T05:52:00;93795.75;;;15.25;100.00
53522;BME280;39398;48.382;9.802;2023-05-23T05:57:02;93795.69;;;14.95;100.00
53522;BME280;39398;48.382;9.802;2023-05-23T06:02:05;93799.38;;;15.12;100.00
53522;BME280;39398;48.382;9.802;2023-05-23T06:07:07;93812.16;;;15.22;100.00
53522;BME280;39398;48.382;9.802;2023-05-23T06:12:08;93806.81;;;15.40;100.00
53522;BME280;39398;48.382;9.802;2023-05-23T06:17:11;93817.78;;;14.95;100.00
53522;BME280;39398;48.382;9.802;2023-05-23T06:22:15;93811.19;;;15.34;100.00
53522;BME280;39398;48.382;9.802;2023-05-23T06:27:17;93831.28;;;14.94;100.00
53522;BME280;39398;48.382;9.802;2023-05-23T06:32:20;93842.50;;;14.96;100.00
53522;BME280;39398;48.382;9.802;2023-05-23T06:37:21;93832.50;;;15.16;100.00
53522;BME280;39398;48.382;9.802;2023-05-23T06:42:23;93823.50;;;15.47;100.00
53522;BME280;39398;48.382;9.802;2023-05-23T06:47:26;93822.63;;;15.53;100.00
53522;BME280;39398;48.382;9.802;2023-05-23T06:52:27;93830.25;;;15.31;100.00
53522;BME280;39398;48.382;9.802;2023-05-23T06:57:29;93819.78;;;15.85;100.00
53522;BME280;39398;48.382;9.802;2023-05-23T07:02:32;93819.91;;;15.90;100.00
53522;BME280;39398;48.382;9.802;2023-05-23T07:07:33;93827.09;;;15.90;100.00
53522;BME280;39398;48.382;9.802;2023-05-23T07:12:35;93834.38;;;15.83;100.00
53522;BME280;39398;48.382;9.802;2023-05-23T07:17:38;93830.50;;;15.78;100.00
53522;BME280;39398;48.382;9.802;2023-05-23T07:22:40;93845.22;;;15.63;100.00
53522;BME280;39398;48.382;9.802;2023-05-23T07:27:41;93846.91;;;15.57;100.00
53522;BME280;39398;48.382;9.802;2023-05-23T07:32:44;93844.38;;;15.32;100.00
53522;BME280;39398;48.382;9.802;2023-05-23T07:37:46;93845.38;;;15.86;100.00
53522;BME280;39398;48.382;9.802;2023-05-23T07:42:50;93844.47;;;15.92;100.00
53522;BME280;39398;48.382;9.802;2023-05-23T07:47:53;93842.38;;;15.94;100.00
53522;BME280;39398;48.382;9.802;2023-05-23T07:52:55;93847.53;;;15.77;100.00
53522;BME280;39398;48.382;9.802;2023-05-23T07:57:56;93849.09;;;15.67;100.00
53522;BME280;39398;48.382;9.802;2023-05-23T08:02:59;93856.91;;;15.62;100.00
53522;BME280;39398;48.382;9.802;2023-05-23T08:08:01;93858.09;;;15.47;100.00
53522;BME280;39398;48.382;9.802;2023-05-23T08:13:02;93859.13;;;15.46;100.00
53522;BME280;39398;48.382;9.802;2023-05-23T08:18:06;93868.59;;;15.42;100.00
53522;BME280;39398;48.382;9.802;2023-05-23T08:23:07;93880.53;;;14.96;100.00
53522;BME280;39398;48.382;9.802;2023-05-23T08:28:09;93872.81;;;15.13;100.00
53522;BME280;39398;48.382;9.802;2023-05-23T08:33:12;93894.34;;;15.05;100.00
53522;BME280;39398;48.382;9.802;2023-05-23T08:38:14;93871.03;;;15.44;100.00
53522;BME280;39398;48.382;9.802;2023-05-23T08:43:15;93877.38;;;15.24;100.00
53522;BME280;39398;48.382;9.802;2023-05-23T08:48:19;93883.88;;;15.65;100.00
53522;BME280;39398;48.382;9.802;2023-05-23T08:53:22;93873.78;;;16.34;100.00
53522;BME280;39398;48.382;9.802;2023-05-23T08:58:28;93884.06;;;16.31;100.00
53522;BME280;39398;48.382;9.802;2023-05-23T09:03:31;93881.56;;;16.47;100.00
53522;BME280;39398;48.382;9.802;2023-05-23T09:08:33;93883.06;;;16.13;100.00
53522;BME280;39398;48.382;9.802;2023-05-23T09:13:35;93881.56;;;16.06;100.00
53522;BME280;39398;48.382;9.802;2023-05-23T09:18:39;93885.41;;;15.91;100.00
53522;BME280;39398;48.382;9.802;2023-05-23T09:23:40;93884.47;;;16.16;100.00
53522;BME280;39398;48.382;9.802;2023-05-23T09:28:43;93883.31;;;16.12;100.00
53522;BME280;39398;48.382;9.802;2023-05-23T09:33:47;93887.56;;;17.20;100.00
53522;BME280;39398;48.382;9.802;2023-05-23T09:38:49;93869.06;;;17.54;100.00
53522;BME280;39398;48.382;9.802;2023-05-23T09:43:52;93880.25;;;16.92;100.00
53522;BME280;39398;48.382;9.802;2023-05-23T09:48:55;93880.25;;;16.92;100.00
53522;BME280;39398;48.382;9.802;2023-05-23T09:53:57;93874.56;;;17.00;100.00
53522;BME280;39398;48.382;9.802;2023-05-23T09:58:59;93876.56;;;17.05;100.00
53522;BME280;39398;48.382;9.802;2023-05-23T10:04:04;93874.00;;;16.86;100.00
53522;BME280;39398;48.382;9.802;2023-05-23T10:09:09;93862.25;;;17.46;100.00
53522;BME280;39398;48.382;9.802;2023-05-23T10:14:12;93873.16;;;17.09;100.00
53522;BME280;39398;48.382;9.802;2023-05-23T10:19:19;93877.69;;;17.09;100.00
53522;BME280;39398;48.382;9.802;2023-05-23T10:24:24;93876.81;;;16.61;100.00
53522;BME280;39398;48.382;9.802;2023-05-23T10:29:26;93871.19;;;17.40;100.00
53522;BME280;39398;48.382;9.802;2023-05-23T10:34:35;93884.78;;;16.91;100.00
53522;BME280;39398;48.382;9.802;2023-05-23T10:39:53;93889.84;;;16.81;100.00
53522;BME280;39398;48.382;9.802;2023-05-23T10:45:17;93890.00;;;16.44;100.00
53522;BME280;39398;48.382;9.802;2023-05-23T10:50:34;93886.88;;;16.06;100.00
53522;BME280;39398;48.382;9.802;2023-05-23T10:55:36;93881.84;;;15.67;100.00
53522;BME280;39398;48.382;9.802;2023-05-23T11:00:38;93889.66;;;16.11;100.00
53522;BME280;39398;48.382;9.802;2023-05-23T11:05:46;93865.13;;;16.74;100.00
53522;BME280;39398;48.382;9.802;2023-05-23T11:10:54;93875.81;;;16.74;100.00
53522;BME280;39398;48.382;9.802;2023-05-23T11:15:56;93871.44;;;16.80;100.00
53522;BME280;39398;48.382;9.802;2023-05-23T11:20:59;93865.03;;;17.16;100.00
53522;BME280;39398;48.382;9.802;2023-05-23T11:26:02;93873.09;;;17.68;100.00
53522;BME280;39398;48.382;9.802;2023-05-23T11:31:03;93871.31;;;17.33;100.00
53522;BME280;39398;48.382;9.802;2023-05-23T11:36:06;93860.84;;;17.43;100.00
53522;BME280;39398;48.382;9.802;2023-05-23T11:41:08;93851.44;;;17.53;100.00
53522;BME280;39398;48.382;9.802;2023-05-23T11:46:10;93855.56;;;17.08;100.00
53522;BME280;39398;48.382;9.802;2023-05-23T11:51:13;93859.22;;;17.95;100.00
53522;BME280;39398;48.382;9.802;2023-05-23T11:56:15;93851.44;;;17.53;100.00
53522;BME280;39398;48.382;9.802;2023-05-23T12:01:16;93853.84;;;17.54;100.00
53522;BME280;39398;48.382;9.802;2023-05-23T12:06:20;93837.00;;;17.02;100.00
53522;BME280;39398;48.382;9.802;2023-05-23T12:11:22;93856.84;;;17.17;100.00
53522;BME280;39398;48.382;9.802;2023-05-23T12:16:24;93842.44;;;17.18;100.00
53522;BME280;39398;48.382;9.802;2023-05-23T12:21:39;93840.59;;;17.07;100.00
53522;BME280;39398;48.382;9.802;2023-05-23T12:26:46;93854.72;;;16.72;100.00
53522;BME280;39398;48.382;9.802;2023-05-23T12:31:49;93846.16;;;16.94;100.00
53522;BME280;39398;48.382;9.802;2023-05-23T12:36:55;93859.59;;;17.23;100.00
53522;BME280;39398;48.382;9.802;2023-05-23T12:42:17;93845.56;;;17.67;100.00
53522;BME280;39398;48.382;9.802;2023-05-23T12:47:18;93865.00;;;17.51;100.00
53522;BME280;39398;48.382;9.802;2023-05-23T12:52:22;93857.03;;;17.28;100.00
53522;BME280;39398;48.382;9.802;2023-05-23T12:57:23;93860.03;;;17.43;100.00
53522;BME280;39398;48.382;9.802;2023-05-23T13:02:26;93856.56;;;17.31;100.00
53522;BME280;39398;48.382;9.802;2023-05-23T13:07:29;93839.78;;;17.07;100.00
53522;BME280;39398;48.382;9.802;2023-05-23T13:12:31;93845.44;;;17.46;100.00
53522;BME280;39398;48.382;9.802;2023-05-23T13:17:33;93858.97;;;17.44;100.00
53522;BME280;39398;48.382;9.802;2023-05-23T13:22:36;93862.63;;;17.14;100.00
53522;BME280;39398;48.382;9.802;2023-05-23T13:27:37;93867.94;;;17.38;100.00
53522;BME280;39398;48.382;9.802;2023-05-23T13:32:39;93861.44;;;17.34;100.00
53522;BME280;39398;48.382;9.802;2023-05-23T13:37:42;93859.50;;;17.17;100.00
53522;BME280;39398;48.382;9.802;2023-05-23T13:42:44;93864.47;;;17.26;100.00
53522;BME280;39398;48.382;9.802;2023-05-23T13:47:46;93848.28;;;17.56;100.00
53522;BME280;39398;48.382;9.802;2023-05-23T13:52:49;93856.94;;;16.99;100.00
53522;BME280;39398;48.382;9.802;2023-05-23T13:57:51;93862.16;;;17.06;100.00
53522;BME280;39398;48.382;9.802;2023-05-23T14:02:52;93843.84;;;17.09;100.00
53522;BME280;39398;48.382;9.802;2023-05-23T14:07:55;93814.09;;;16.23;100.00
53522;BME280;39398;48.382;9.802;2023-05-23T14:12:57;93833.28;;;16.14;100.00
53522;BME280;39398;48.382;9.802;2023-05-23T14:17:58;93851.00;;;16.73;100.00
53522;BME280;39398;48.382;9.802;2023-05-23T14:23:01;93846.50;;;17.09;100.00
53522;BME280;39398;48.382;9.802;2023-05-23T14:28:04;93838.97;;;17.06;100.00
53522;BME280;39398;48.382;9.802;2023-05-23T14:33:05;93852.06;;;16.84;100.00
53522;BME280;39398;48.382;9.802;2023-05-23T14:38:11;93851.84;;;17.09;100.00
53522;BME280;39398;48.382;9.802;2023-05-23T14:43:14;93838.63;;;16.79;100.00
53522;BME280;39398;48.382;9.802;2023-05-23T14:48:16;93846.81;;;16.54;100.00
53522;BME280;39398;48.382;9.802;2023-05-23T14:53:19;93839.13;;;16.46;100.00
53522;BME280;39398;48.382;9.802;2023-05-23T14:58:21;93852.59;;;16.51;100.00
53522;BME280;39398;48.382;9.802;2023-05-23T15:03:22;93858.72;;;15.98;100.00
53522;BME280;39398;48.382;9.802;2023-05-23T15:08:26;93839.91;;;16.23;100.00
53522;BME280;39398;48.382;9.802;2023-05-23T15:13:28;93852.16;;;16.66;100.00
53522;BME280;39398;48.382;9.802;2023-05-23T15:18:29;93846.25;;;16.64;100.00
53522;BME280;39398;48.382;9.802;2023-05-23T15:23:43;93846.06;;;17.01;100.00
53522;BME280;39398;48.382;9.802;2023-05-23T15:28:45;93846.88;;;17.01;100.00
53522;BME280;39398;48.382;9.802;2023-05-23T15:33:48;93837.06;;;15.94;100.00
53522;BME280;39398;48.382;9.802;2023-05-23T15:38:51;93865.53;;;15.57;100.00
53522;BME280;39398;48.382;9.802;2023-05-23T15:43:53;93838.81;;;15.52;100.00
53522;BME280;39398;48.382;9.802;2023-05-23T15:48:54;93861.00;;;15.46;100.00
53522;BME280;39398;48.382;9.802;2023-05-23T15:53:57;93864.78;;;15.38;100.00
53522;BME280;39398;48.382;9.802;2023-05-23T15:59:02;93846.59;;;15.35;100.00
53522;BME280;39398;48.382;9.802;2023-05-23T16:04:05;93839.78;;;14.84;100.00
53522;BME280;39398;48.382;9.802;2023-05-23T16:09:08;93864.44;;;15.28;100.00
53522;BME280;39398;48.382;9.802;2023-05-23T16:14:10;93846.78;;;15.52;100.00
53522;BME280;39398;48.382;9.802;2023-05-23T16:19:11;93855.50;;;15.59;100.00
53522;BME280;39398;48.382;9.802;2023-05-23T16:24:14;93841.53;;;15.64;100.00
53522;BME280;39398;48.382;9.802;2023-05-23T16:29:16;93860.47;;;15.55;100.00
53522;BME280;39398;48.382;9.802;2023-05-23T16:34:18;93862.88;;;15.94;100.00
53522;BME280;39398;48.382;9.802;2023-05-23T16:39:21;93863.25;;;15.79;100.00
53522;BME280;39398;48.382;9.802;2023-05-23T16:44:22;93864.13;;;16.21;100.00
53522;BME280;39398;48.382;9.802;2023-05-23T16:49:24;93864.09;;;16.10;100.00
53522;BME280;39398;48.382;9.802;2023-05-23T16:54:27;93860.34;;;15.99;100.00
53522;BME280;39398;48.382;9.802;2023-05-23T16:59:29;93865.88;;;15.97;100.00
53522;BME280;39398;48.382;9.802;2023-05-23T17:04:31;93871.69;;;16.36;100.00
53522;BME280;39398;48.382;9.802;2023-05-23T17:09:34;93864.13;;;15.91;100.00
53522;BME280;39398;48.382;9.802;2023-05-23T17:14:35;93863.56;;;15.89;100.00
53522;BME280;39398;48.382;9.802;2023-05-23T17:19:37;93864.81;;;15.50;100.00
53522;BME280;39398;48.382;9.802;2023-05-23T17:24:41;93878.06;;;14.76;100.00
53522;BME280;39398;48.382;9.802;2023-05-23T17:29:43;93881.75;;;14.75;100.00
53522;BME280;39398;48.382;9.802;2023-05-23T17:34:45;93878.66;;;14.53;100.00
53522;BME280;39398;48.382;9.802;2023-05-23T17:39:48;93877.03;;;14.77;100.00
53522;BME280;39398;48.382;9.802;2023-05-23T17:44:49;93885.09;;;14.89;100.00
53522;BME280;39398;48.382;9.802;2023-05-23T17:49:51;93881.19;;;14.92;100.00
53522;BME280;39398;48.382;9.802;2023-05-23T17:54:55;93888.25;;;14.79;100.00
53522;BME280;39398;48.382;9.802;2023-05-23T17:59:57;93894.78;;;15.02;100.00
53522;BME280;39398;48.382;9.802;2023-05-23T18:04:58;93891.41;;;15.31;100.00
53522;BME280;39398;48.382;9.802;2023-05-23T18:10:01;93906.47;;;15.01;100.00
53522;BME280;39398;48.382;9.802;2023-05-23T18:15:04;93905.28;;;14.72;100.00
53522;BME280;39398;48.382;9.802;2023-05-23T18:20:06;93901.44;;;14.68;100.00
53522;BME280;39398;48.382;9.802;2023-05-23T18:25:10;93901.44;;;14.36;100.00
53522;BME280;39398;48.382;9.802;2023-05-23T18:30:12;93896.88;;;14.18;100.00
53522;BME280;39398;48.382;9.802;2023-05-23T18:35:13;93899.69;;;14.55;100.00
53522;BME280;39398;48.382;9.802;2023-05-23T18:40:16;93896.25;;;14.48;100.00
53522;BME280;39398;48.382;9.802;2023-05-23T18:45:18;93903.28;;;14.67;100.00
53522;BME280;39398;48.382;9.802;2023-05-23T18:50:20;93914.06;;;14.72;100.00
53522;BME280;39398;48.382;9.802;2023-05-23T18:55:23;93918.97;;;14.75;100.00
53522;BME280;39398;48.382;9.802;2023-05-23T19:00:24;93929.69;;;14.62;100.00
53522;BME280;39398;48.382;9.802;2023-05-23T19:05:26;93929.31;;;14.58;100.00
53522;BME280;39398;48.382;9.802;2023-05-23T19:10:29;93934.09;;;14.43;100.00
53522;BME280;39398;48.382;9.802;2023-05-23T19:15:31;93946.50;;;14.49;100.00
53522;BME280;39398;48.382;9.802;2023-05-23T19:20:32;93948.81;;;14.71;100.00
53522;BME280;39398;48.382;9.802;2023-05-23T19:25:35;93954.13;;;14.71;100.00
53522;BME280;39398;48.382;9.802;2023-05-23T19:30:37;93952.72;;;14.36;100.00
53522;BME280;39398;48.382;9.802;2023-05-23T19:35:38;93961.03;;;14.78;100.00
53522;BME280;39398;48.382;9.802;2023-05-23T19:40:41;93968.84;;;14.73;100.00
53522;BME280;39398;48.382;9.802;2023-05-23T19:45:43;93976.84;;;14.28;100.00
53522;BME280;39398;48.382;9.802;2023-05-23T19:50:45;93971.66;;;14.08;100.00
53522;BME280;39398;48.382;9.802;2023-05-23T19:55:48;93980.53;;;13.89;100.00
53522;BME280;39398;48.382;9.802;2023-05-23T20:00:50;93986.56;;;14.09;100.00
53522;BME280;39398;48.382;9.802;2023-05-23T20:05:52;93992.09;;;14.08;100.00
53522;BME280;39398;48.382;9.802;2023-05-23T20:10:55;93993.63;;;13.77;100.00
53522;BME280;39398;48.382;9.802;2023-05-23T20:15:57;93998.84;;;13.97;100.00
53522;BME280;39398;48.382;9.802;2023-05-23T20:20:59;94001.25;;;14.12;100.00
53522;BME280;39398;48.382;9.802;2023-05-23T20:26:04;94001.56;;;13.77;100.00
53522;BME280;39398;48.382;9.802;2023-05-23T20:31:07;94004.47;;;13.62;100.00
53522;BME280;39398;48.382;9.802;2023-05-23T20:36:09;94012.00;;;13.79;100.00
53522;BME280;39398;48.382;9.802;2023-05-23T20:41:12;94020.84;;;13.39;100.00
53522;BME280;39398;48.382;9.802;2023-05-23T20:46:14;94026.53;;;13.10;100.00
53522;BME280;39398;48.382;9.802;2023-05-23T20:51:15;94024.13;;;13.08;100.00
53522;BME280;39398;48.382;9.802;2023-05-23T20:56:18;94029.78;;;12.78;100.00
53522;BME280;39398;48.382;9.802;2023-05-23T21:01:20;94024.88;;;12.69;100.00
53522;BME280;39398;48.382;9.802;2023-05-23T21:06:22;94028.34;;;12.69;100.00
53522;BME280;39398;48.382;9.802;2023-05-23T21:11:25;94038.72;;;12.57;100.00
53522;BME280;39398;48.382;9.802;2023-05-23T21:16:26;94049.34;;;12.71;100.00
53522;BME280;39398;48.382;9.802;2023-05-23T21:21:28;94048.28;;;12.52;100.00
53522;BME280;39398;48.382;9.802;2023-05-23T21:26:31;94047.88;;;12.55;100.00
53522;BME280;39398;48.382;9.802;2023-05-23T21:31:33;94056.03;;;12.60;100.00
53522;BME280;39398;48.382;9.802;2023-05-23T21:36:42;94052.75;;;12.38;100.00
53522;BME280;39398;48.382;9.802;2023-05-23T21:41:45;94062.28;;;12.26;100.00
53522;BME280;39398;48.382;9.802;2023-05-23T21:46:47;94054.69;;;12.09;100.00
53522;BME280;39398;48.382;9.802;2023-05-23T21:51:48;94068.28;;;12.00;100.00
53522;BME280;39398;48.382;9.802;2023-05-23T21:56:51;94073.72;;;11.92;100.00
53522;BME280;39398;48.382;9.802;2023-05-23T22:01:53;94076.78;;;11.95;100.00
53522;BME280;39398;48.382;9.802;2023-05-23T22:06:55;94074.22;;;11.80;100.00
53522;BME280;39398;48.382;9.802;2023-05-23T22:11:58;94069.38;;;11.84;100.00
53522;BME280;39398;48.382;9.802;2023-05-23T22:16:59;94076.31;;;11.85;100.00
53522;BME280;39398;48.382;9.802;2023-05-23T22:22:01;94070.69;;;11.95;100.00
53522;BME280;39398;48.382;9.802;2023-05-23T22:27:04;94069.03;;;11.87;100.00
53522;BME280;39398;48.382;9.802;2023-05-23T22:32:06;94062.31;;;11.91;100.00
53522;BME280;39398;48.382;9.802;2023-05-23T22:37:08;94062.13;;;11.99;100.00
53522;BME280;39398;48.382;9.802;2023-05-23T22:42:10;94071.88;;;11.92;100.00
53522;BME280;39398;48.382;9.802;2023-05-23T22:47:12;94073.38;;;11.73;100.00
53522;BME280;39398;48.382;9.802;2023-05-23T22:52:14;94062.44;;;11.48;100.00
53522;BME280;39398;48.382;9.802;2023-05-23T22:57:17;94058.88;;;11.34;100.00
53522;BME280;39398;48.382;9.802;2023-05-23T23:02:18;94059.56;;;11.43;100.00
53522;BME280;39398;48.382;9.802;2023-05-23T23:07:20;94066.97;;;11.61;100.00
53522;BME280;39398;48.382;9.802;2023-05-23T23:12:23;94066.94;;;11.54;100.00
53522;BME280;39398;48.382;9.802;2023-05-23T23:17:25;94066.19;;;11.60;100.00
53522;BME280;39398;48.382;9.802;2023-05-23T23:22:26;94059.91;;;11.61;100.00
53522;BME280;39398;48.382;9.802;2023-05-23T23:27:30;94056.34;;;11.48;100.00
53522;BME280;39398;48.382;9.802;2023-05-23T23:32:32;94053.22;;;11.37;100.00
53522;BME280;39398;48.382;9.802;2023-05-23T23:37:34;94049.81;;;11.44;100.00
53522;BME280;39398;48.382;9.802;2023-05-23T23:42:37;94041.19;;;11.35;100.00
53522;BME280;39398;48.382;9.802;2023-05-23T23:47:39;94037.34;;;11.09;100.00
53522;BME280;39398;48.382;9.802;2023-05-23T23:52:41;94029.06;;;11.12;100.00
53522;BME280;39398;48.382;9.802;2023-05-23T23:57:44;94025.94;;;11.02;100.00
